createdAt,value
2023-02-12T00:04:54.114Z,10.60
2023-02-12T00:10:05.344Z,6.77
2023-02-12T00:15:16.310Z,5.07
2023-02-12T00:17:42.900Z,5.20
2023-02-12T00:20:09.793Z,5.97
2023-02-12T00:22:36.351Z,4.23
2023-02-12T00:27:47.266Z,7.53
2023-02-12T00:30:13.911Z,4.73
2023-02-12T00:32:41.010Z,5.33
2023-02-12T00:35:07.685Z,5.63
2023-02-12T00:37:34.781Z,5.33
2023-02-12T00:40:01.358Z,5.17
2023-02-12T00:42:28.490Z,5.37
2023-02-12T00:44:55.781Z,3.57
2023-02-12T00:47:22.356Z,5.43
2023-02-12T00:49:49.895Z,6.27
2023-02-12T00:55:00.552Z,4.83
2023-02-12T00:57:27.131Z,3.50
2023-02-12T00:59:53.782Z,5.93
2023-02-12T01:02:20.399Z,2.53
2023-02-12T01:07:31.035Z,5.03
2023-02-12T01:09:57.604Z,4.27
2023-02-12T01:12:24.246Z,4.33
2023-02-12T01:14:50.830Z,2.87
2023-02-12T01:20:01.762Z,2.20
2023-02-12T01:25:14.107Z,1.93
2023-02-12T01:27:40.644Z,3.70
2023-02-12T01:30:07.999Z,4.17
2023-02-12T01:32:35.005Z,3.50
2023-02-12T01:35:01.669Z,4.27
2023-02-12T01:37:28.213Z,4.27
2023-02-12T01:39:54.843Z,3.97
2023-02-12T01:42:21.457Z,3.23
2023-02-12T02:17:27.945Z,5.10
2023-02-12T02:19:57.419Z,5.33
2023-02-12T02:22:26.929Z,8.07
2023-02-12T02:24:57.581Z,9.00
2023-02-12T02:27:45.040Z,10.00
2023-02-12T02:30:11.794Z,6.73
2023-02-12T02:32:58.616Z,8.37
2023-02-12T02:38:33.072Z,6.87
2023-02-12T02:41:04.955Z,7.77
2023-02-12T02:43:33.574Z,5.57
2023-02-12T02:46:02.480Z,6.13
2023-02-12T02:48:32.425Z,7.00
2023-02-12T02:51:03.820Z,8.93
2023-02-12T02:53:31.620Z,8.17
2023-02-12T02:58:57.134Z,8.17
2023-02-12T03:01:31.452Z,9.57
2023-02-12T03:04:02.761Z,9.10
2023-02-12T03:06:29.362Z,7.90
2023-02-12T03:08:57.325Z,9.27
2023-02-12T03:11:27.378Z,8.33
2023-02-12T03:17:12.530Z,17.40
2023-02-12T03:20:02.164Z,14.33
2023-02-12T03:22:30.680Z,16.90
2023-02-12T03:25:04.803Z,12.93
2023-02-12T03:27:42.331Z,11.63
2023-02-12T03:33:12.959Z,10.27
2023-02-12T03:35:43.015Z,10.07
2023-02-12T03:38:13.848Z,10.87
2023-02-12T03:40:41.422Z,11.43
2023-02-12T03:46:17.515Z,10.57
2023-02-12T03:49:04.026Z,8.57
2023-02-12T03:51:35.014Z,8.87
2023-02-12T03:54:01.840Z,10.23
2023-02-12T03:59:23.561Z,7.20
2023-02-12T04:01:50.324Z,9.00
2023-02-12T04:04:17.139Z,7.27
2023-02-12T04:06:43.784Z,9.60
2023-02-12T04:09:10.813Z,10.40
2023-02-12T04:11:48.915Z,11.37
2023-02-12T04:14:34.130Z,8.30
2023-02-12T04:17:04.482Z,8.87
2023-02-12T04:19:51.600Z,12.20
2023-02-12T04:22:29.350Z,6.47
2023-02-12T04:24:59.410Z,7.23
2023-02-12T04:27:26.643Z,9.27
2023-02-12T04:29:53.619Z,7.60
2023-02-12T04:35:23.050Z,7.83
2023-02-12T04:40:41.049Z,8.27
2023-02-12T04:43:07.786Z,9.10
2023-02-12T04:45:34.739Z,15.60
2023-02-12T04:48:01.354Z,9.00
2023-02-12T04:50:28.287Z,9.53
2023-02-12T04:52:55.027Z,5.30
2023-02-12T04:55:21.562Z,10.07
2023-02-12T05:00:32.159Z,8.87
2023-02-12T05:05:43.090Z,8.30
2023-02-12T05:10:53.608Z,9.83
2023-02-12T05:16:05.265Z,6.57
2023-02-12T05:21:16.296Z,9.23
2023-02-12T05:23:42.894Z,9.43
2023-02-12T05:26:13.185Z,9.07
2023-02-12T05:28:39.840Z,8.60
2023-02-12T05:33:51.053Z,11.47
2023-02-12T05:36:18.608Z,13.07
2023-02-12T05:38:45.226Z,10.47
2023-02-12T05:41:12.810Z,9.13
2023-02-12T05:43:39.427Z,10.60
2023-02-12T05:46:06.289Z,13.60
2023-02-12T05:48:33.101Z,11.10
2023-02-12T05:51:12.861Z,9.40
2023-02-12T05:53:39.601Z,10.50
2023-02-12T05:56:13.172Z,12.37
2023-02-12T05:58:40.154Z,12.23
2023-02-12T06:01:10.847Z,11.43
2023-02-12T06:03:37.560Z,10.23
2023-02-12T06:06:04.247Z,10.47
2023-02-12T06:08:30.868Z,9.40
2023-02-12T06:13:44.319Z,17.17
2023-02-12T06:19:05.201Z,16.03
2023-02-12T06:21:31.925Z,14.77
2023-02-12T06:23:58.549Z,13.20
2023-02-12T06:26:25.356Z,12.47
2023-02-12T06:28:52.086Z,13.80
2023-02-12T06:31:21.938Z,10.90
2023-02-12T06:33:48.771Z,11.40
2023-02-12T06:36:15.346Z,13.03
2023-02-12T06:38:41.999Z,10.10
2023-02-12T06:41:08.561Z,11.83
2023-02-12T06:46:19.642Z,13.20
2023-02-12T06:48:46.243Z,12.53
2023-02-12T06:51:16.522Z,15.37
2023-02-12T06:53:43.359Z,14.97
2023-02-12T06:56:13.463Z,14.57
2023-02-12T06:58:40.641Z,14.47
2023-02-12T07:01:13.371Z,17.77
2023-02-12T07:03:43.150Z,11.77
2023-02-12T07:06:09.772Z,15.07
2023-02-12T07:08:36.441Z,17.03
2023-02-12T07:11:03.358Z,15.37
2023-02-12T07:13:30.217Z,20.10
2023-02-12T07:15:57.225Z,20.83
2023-02-12T07:18:24.042Z,23.73
2023-02-12T07:20:50.683Z,20.73
2023-02-12T07:23:18.516Z,22.93
2023-02-12T07:25:45.141Z,24.00
2023-02-12T07:28:11.824Z,18.63
2023-02-12T07:30:40.486Z,19.63
2023-02-12T07:33:08.409Z,20.27
2023-02-12T07:35:34.965Z,13.57
2023-02-12T07:38:01.618Z,14.47
2023-02-12T07:40:28.195Z,16.53
2023-02-12T07:42:55.780Z,21.10
2023-02-12T07:45:22.491Z,19.00
2023-02-12T07:47:50.045Z,19.63
2023-02-12T07:50:16.782Z,20.57
2023-02-12T07:52:43.404Z,28.60
2023-02-12T07:57:54.197Z,25.37
2023-02-12T08:03:05.099Z,18.60
2023-02-12T08:08:16.116Z,13.50
2023-02-12T08:13:27.077Z,12.83
2023-02-12T08:18:44.297Z,13.43
2023-02-12T08:21:11.767Z,10.60
2023-02-12T08:23:38.718Z,11.90
2023-02-12T08:29:02.371Z,11.10
2023-02-12T08:34:21.367Z,10.73
2023-02-12T08:36:48.708Z,13.90
2023-02-12T08:39:15.499Z,12.40
2023-02-12T08:41:45.375Z,10.67
2023-02-12T08:46:56.903Z,11.00
2023-02-12T08:49:24.521Z,12.63
2023-02-12T08:51:51.832Z,10.77
2023-02-12T08:54:20.041Z,11.77
2023-02-12T08:56:46.909Z,13.23
2023-02-12T08:59:14.112Z,14.47
2023-02-12T09:01:43.602Z,12.80
2023-02-12T09:04:18.262Z,12.67
2023-02-12T09:06:46.092Z,12.70
2023-02-12T09:09:12.781Z,5.57
2023-02-12T09:11:39.556Z,10.60
2023-02-12T09:14:06.838Z,10.33
2023-02-12T09:16:34.027Z,11.90
2023-02-12T09:19:00.845Z,11.70
2023-02-12T09:21:27.519Z,12.43
2023-02-12T09:23:54.270Z,14.10
2023-02-12T09:26:21.849Z,14.33
2023-02-12T09:28:49.913Z,14.77
2023-02-12T09:31:17.960Z,10.03
2023-02-12T09:33:45.326Z,8.83
2023-02-12T09:36:12.782Z,12.13
2023-02-12T09:38:39.541Z,7.20
2023-02-12T09:41:25.097Z,12.20
2023-02-12T09:43:53.081Z,12.20
2023-02-12T09:46:25.884Z,11.67
2023-02-12T09:49:09.951Z,14.63
2023-02-12T09:51:37.673Z,14.27
2023-02-12T09:54:30.371Z,10.73
2023-02-12T09:56:57.913Z,12.07
2023-02-12T09:59:27.659Z,13.17
2023-02-12T10:01:54.561Z,13.23
2023-02-12T10:04:21.620Z,11.23
2023-02-12T10:06:51.454Z,11.93
2023-02-12T10:09:33.607Z,11.17
2023-02-12T10:12:06.272Z,17.07
2023-02-12T10:14:42.420Z,13.20
2023-02-12T10:17:23.945Z,12.73
2023-02-12T10:20:01.183Z,11.23
2023-02-12T10:22:30.830Z,10.57
2023-02-12T10:25:17.967Z,12.17
2023-02-12T10:27:54.921Z,8.90
2023-02-12T10:30:25.671Z,9.80
2023-02-12T10:32:54.302Z,11.83
2023-02-12T10:35:21.376Z,9.40
2023-02-12T10:37:48.053Z,13.27
2023-02-12T10:40:18.811Z,12.80
2023-02-12T10:42:50.380Z,13.97
2023-02-12T10:45:40.207Z,11.90
2023-02-12T10:48:13.887Z,13.23
2023-02-12T10:50:44.968Z,11.30
2023-02-12T10:53:13.588Z,9.00
2023-02-12T10:55:40.174Z,9.70
2023-02-12T10:58:07.048Z,11.07
2023-02-12T11:03:24.364Z,13.97
2023-02-12T11:05:51.259Z,14.17
2023-02-12T11:08:39.318Z,16.57
2023-02-12T11:11:10.676Z,11.63
2023-02-12T11:13:37.656Z,16.73
2023-02-12T11:16:04.558Z,14.77
2023-02-12T11:21:23.914Z,14.27
2023-02-12T11:23:50.787Z,15.90
2023-02-12T11:26:20.450Z,10.53
2023-02-12T11:29:00.191Z,14.47
2023-02-12T11:31:34.052Z,12.80
2023-02-12T11:36:52.353Z,11.80
2023-02-12T11:39:19.160Z,10.87
2023-02-12T11:41:49.314Z,8.63
2023-02-12T11:44:35.223Z,10.00
2023-02-12T11:47:04.095Z,8.03
2023-02-12T11:49:32.053Z,4.67
2023-02-12T11:52:00.400Z,10.10
2023-02-12T11:54:27.555Z,10.93
2023-02-12T11:56:55.509Z,10.57
2023-02-12T11:59:35.639Z,10.80
2023-02-12T12:02:09.277Z,10.37
2023-02-12T12:04:36.680Z,8.30
2023-02-12T12:07:07.588Z,12.90
2023-02-12T12:09:37.217Z,11.70
2023-02-12T12:12:07.067Z,12.70
2023-02-12T12:14:56.080Z,16.03
2023-02-12T12:17:41.525Z,8.63
2023-02-12T12:20:16.402Z,12.97
2023-02-12T12:23:01.026Z,13.63
2023-02-12T12:25:28.138Z,17.27
2023-02-12T12:28:03.796Z,18.33
2023-02-12T12:33:52.979Z,14.17
2023-02-12T12:36:38.324Z,17.00
2023-02-12T12:39:21.574Z,16.60
2023-02-12T12:42:07.199Z,19.20
2023-02-12T12:44:34.115Z,18.80
2023-02-12T12:47:05.472Z,15.63
2023-02-12T12:49:39.401Z,13.00
2023-02-12T12:52:18.291Z,14.80
2023-02-12T12:55:02.352Z,16.90
2023-02-12T12:57:35.239Z,15.30
2023-02-12T13:00:24.337Z,15.63
2023-02-12T13:03:10.335Z,15.93
2023-02-12T13:05:37.492Z,12.23
2023-02-12T13:08:04.070Z,14.87
2023-02-12T13:10:38.572Z,12.27
2023-02-12T13:13:13.717Z,9.20
2023-02-12T13:15:56.303Z,8.57
2023-02-12T13:18:32.166Z,19.33
2023-02-12T13:23:48.345Z,11.97
2023-02-12T13:26:15.251Z,15.50
2023-02-12T13:28:52.827Z,9.27
2023-02-12T13:34:10.894Z,14.33
2023-02-12T13:39:31.031Z,9.37
2023-02-12T13:42:15.887Z,16.50
2023-02-12T13:44:48.600Z,12.67
2023-02-12T13:47:18.468Z,11.77
2023-02-12T13:50:03.875Z,14.10
2023-02-12T13:52:36.244Z,10.07
2023-02-12T13:55:12.243Z,13.87
2023-02-12T13:57:38.881Z,13.27
2023-02-12T14:00:09.025Z,14.10
2023-02-12T14:02:38.565Z,8.90
2023-02-12T14:05:15.222Z,10.40
2023-02-12T14:07:41.939Z,8.00
2023-02-12T14:10:09.301Z,11.30
2023-02-12T14:12:36.437Z,17.23
2023-02-12T14:15:21.895Z,12.73
2023-02-12T14:21:12.206Z,14.57
2023-02-12T14:23:39.548Z,14.53
2023-02-12T14:26:06.216Z,12.67
2023-02-12T14:28:34.701Z,15.53
2023-02-12T14:31:24.725Z,12.63
2023-02-12T14:34:12.026Z,12.10
2023-02-12T14:36:40.829Z,11.60
2023-02-12T14:39:19.408Z,16.40
2023-02-12T14:41:46.813Z,14.60
2023-02-12T14:44:27.465Z,10.27
2023-02-12T14:46:54.697Z,17.33
2023-02-12T14:49:27.412Z,16.10
2023-02-12T14:51:56.586Z,11.93
2023-02-12T14:54:40.951Z,10.57
2023-02-12T14:57:14.273Z,13.40
2023-02-12T14:59:41.860Z,14.23
2023-02-12T15:02:08.844Z,19.80
2023-02-12T15:04:37.870Z,13.83
2023-02-12T15:07:08.581Z,13.60
2023-02-12T15:12:36.713Z,16.50
2023-02-12T15:15:08.874Z,15.97
2023-02-12T15:17:37.306Z,20.23
2023-02-12T15:20:10.507Z,18.57
2023-02-12T15:22:39.289Z,18.53
2023-02-12T15:25:25.300Z,17.53
2023-02-12T15:27:53.821Z,14.77
2023-02-12T15:30:27.414Z,21.10
2023-02-12T15:32:55.741Z,19.77
2023-02-12T15:35:22.554Z,20.63
2023-02-12T15:37:49.362Z,16.43
2023-02-12T15:40:16.270Z,19.80
2023-02-12T15:42:55.962Z,12.40
2023-02-12T15:45:35.369Z,15.67
2023-02-12T15:48:02.294Z,19.17
2023-02-12T15:50:29.265Z,19.13
2023-02-12T15:52:56.728Z,18.93
2023-02-12T15:55:25.286Z,12.17
2023-02-12T15:57:52.545Z,13.97
2023-02-12T16:03:25.321Z,9.23
2023-02-12T16:05:52.234Z,13.40
2023-02-12T16:08:19.496Z,14.97
2023-02-12T16:10:51.335Z,14.80
2023-02-12T16:13:18.489Z,15.53
2023-02-12T16:15:47.331Z,14.40
2023-02-12T16:18:24.683Z,16.43
2023-02-12T16:21:04.536Z,18.97
2023-02-12T16:26:16.883Z,12.77
2023-02-12T16:31:30.275Z,12.90
2023-02-12T16:33:59.356Z,10.20
2023-02-12T16:36:27.467Z,12.27
2023-02-12T16:38:54.086Z,14.70
2023-02-12T16:41:21.665Z,13.20
2023-02-12T16:44:11.253Z,15.73
2023-02-12T16:46:45.379Z,14.57
2023-02-12T16:49:16.323Z,14.83
2023-02-12T16:51:43.147Z,15.27
2023-02-12T16:57:20.649Z,15.50
2023-02-12T16:59:47.413Z,17.17
2023-02-12T17:02:14.705Z,14.57
2023-02-12T17:04:41.745Z,16.47
2023-02-12T17:07:18.676Z,13.13
2023-02-12T17:09:45.471Z,11.73
2023-02-12T17:12:13.959Z,18.67
2023-02-12T17:14:42.086Z,15.63
2023-02-12T17:17:09.025Z,16.10
2023-02-12T17:19:36.937Z,19.40
2023-02-12T17:22:04.289Z,18.13
2023-02-12T17:24:31.675Z,19.33
2023-02-12T17:26:58.445Z,18.37
2023-02-12T17:29:28.202Z,19.67
2023-02-12T17:31:56.176Z,21.03
2023-02-12T17:34:23.331Z,23.27
2023-02-12T17:36:50.542Z,19.43
2023-02-12T17:39:17.684Z,23.73
2023-02-12T17:41:45.495Z,22.83
2023-02-12T17:44:14.523Z,24.07
2023-02-12T17:46:42.263Z,17.70
2023-02-12T17:49:08.919Z,20.07
2023-02-12T17:51:36.480Z,18.53
2023-02-12T17:54:03.270Z,19.13
2023-02-12T17:56:30.609Z,20.83
2023-02-12T17:58:57.664Z,19.43
2023-02-12T18:01:24.612Z,19.13
2023-02-12T18:03:53.718Z,20.57
2023-02-12T18:06:23.100Z,21.20
2023-02-12T18:08:49.910Z,17.93
2023-02-12T18:11:19.166Z,17.73
2023-02-12T18:16:32.651Z,17.93
2023-02-12T18:19:00.091Z,17.87
2023-02-12T18:21:28.098Z,17.33
2023-02-12T18:23:56.557Z,16.70
2023-02-12T18:26:23.511Z,18.23
2023-02-12T18:28:50.379Z,18.47
2023-02-12T18:31:19.688Z,21.53
2023-02-12T18:33:46.498Z,14.50
2023-02-12T18:36:15.135Z,17.53
2023-02-12T18:38:42.311Z,14.93
2023-02-12T18:43:54.826Z,11.97
2023-02-12T18:46:24.193Z,12.23
2023-02-12T18:48:51.112Z,10.27
2023-02-12T18:51:18.852Z,12.93
2023-02-12T18:53:46.481Z,10.67
2023-02-12T18:56:13.199Z,9.20
2023-02-12T18:58:40.687Z,10.10
2023-02-12T19:01:13.681Z,8.53
2023-02-12T19:03:40.526Z,11.33
2023-02-12T19:06:07.336Z,8.13
2023-02-12T19:08:34.359Z,10.83
2023-02-12T19:11:02.024Z,7.57
2023-02-12T19:13:28.723Z,9.87
2023-02-12T19:15:55.789Z,9.17
2023-02-12T19:18:22.751Z,9.20
2023-02-12T19:20:49.652Z,8.40
2023-02-12T19:26:05.658Z,8.90
2023-02-12T19:28:32.951Z,8.80
2023-02-12T19:31:01.148Z,9.73
2023-02-12T19:33:28.547Z,9.03
2023-02-12T19:38:42.876Z,10.17
2023-02-12T19:41:12.198Z,8.60
2023-02-12T19:43:39.038Z,11.40
2023-02-12T19:46:13.099Z,8.17
2023-02-12T19:48:40.098Z,10.27
2023-02-12T19:51:07.021Z,8.40
2023-02-12T19:53:33.956Z,10.63
2023-02-12T19:56:01.417Z,9.40
2023-02-12T19:58:30.303Z,7.10
2023-02-12T20:00:58.080Z,7.90
2023-02-12T20:03:26.606Z,7.30
2023-02-12T20:06:03.864Z,11.17
2023-02-12T20:08:34.276Z,9.03
2023-02-12T20:11:00.964Z,10.63
2023-02-12T20:13:27.824Z,8.17
2023-02-12T20:15:54.935Z,9.70
2023-02-12T20:18:21.733Z,10.90
2023-02-12T20:20:48.536Z,6.47
2023-02-12T20:23:15.136Z,12.93
2023-02-12T20:25:42.607Z,10.57
2023-02-12T20:28:09.294Z,10.20
2023-02-12T20:30:38.925Z,8.50
2023-02-12T20:33:05.732Z,7.30
2023-02-12T20:35:37.052Z,11.60
2023-02-12T20:38:04.902Z,8.00
2023-02-12T20:40:31.776Z,9.33
2023-02-12T20:42:59.133Z,8.63
2023-02-12T20:45:27.723Z,8.70
2023-02-12T20:47:54.766Z,8.63
2023-02-12T20:53:06.801Z,10.93
2023-02-12T20:55:33.942Z,11.33
2023-02-12T20:58:01.950Z,11.57
2023-02-12T21:00:30.804Z,9.57
2023-02-12T21:05:43.992Z,11.43
2023-02-12T21:08:11.408Z,10.03
2023-02-12T21:10:39.166Z,9.53
2023-02-12T21:13:05.776Z,7.13
2023-02-12T21:15:32.607Z,12.20
2023-02-12T21:18:00.470Z,9.43
2023-02-12T21:20:27.110Z,7.47
2023-02-12T21:22:54.946Z,9.00
2023-02-12T21:25:21.941Z,9.50
2023-02-12T21:27:48.741Z,8.13
2023-02-12T21:30:16.258Z,8.90
2023-02-12T21:32:42.924Z,8.43
2023-02-12T21:35:09.562Z,10.60
2023-02-12T21:37:36.638Z,10.00
2023-02-12T21:40:03.427Z,8.83
2023-02-12T21:42:31.088Z,7.63
2023-02-12T21:44:57.787Z,10.40
2023-02-12T21:47:27.339Z,8.93
2023-02-12T21:49:54.029Z,10.57
2023-02-12T21:52:21.271Z,5.83
2023-02-12T21:54:47.880Z,7.20
2023-02-12T21:57:19.016Z,7.57
2023-02-12T21:59:45.670Z,9.07
2023-02-12T22:02:12.275Z,7.13
2023-02-12T22:04:38.981Z,7.87
2023-02-12T22:07:05.615Z,6.43
2023-02-12T22:09:32.318Z,9.13
2023-02-12T22:11:58.891Z,8.23
2023-02-12T22:14:25.811Z,7.27
2023-02-12T22:16:52.491Z,7.73
2023-02-12T22:19:19.085Z,7.03
2023-02-12T22:21:45.775Z,9.23
2023-02-12T22:24:14.868Z,5.83
2023-02-12T22:26:41.557Z,7.33
2023-02-12T22:29:08.959Z,7.37
2023-02-12T22:31:36.219Z,10.87
2023-02-12T22:34:04.347Z,6.83
2023-02-12T22:39:15.417Z,8.30
2023-02-12T22:41:42.573Z,5.23
2023-02-12T22:44:09.893Z,8.13
2023-02-12T22:46:36.507Z,6.70
2023-02-12T22:51:47.993Z,7.63
2023-02-12T22:54:15.441Z,7.80
2023-02-12T22:56:42.294Z,7.93
2023-02-12T22:59:09.396Z,6.07
2023-02-12T23:04:20.390Z,7.33
2023-02-12T23:09:31.405Z,6.53
2023-02-12T23:11:58.083Z,6.50
2023-02-12T23:14:24.699Z,7.30
2023-02-12T23:16:51.327Z,7.87
2023-02-12T23:19:17.938Z,6.97
2023-02-12T23:21:44.709Z,7.70
2023-02-12T23:24:14.976Z,9.80
2023-02-12T23:26:41.722Z,6.23
2023-02-12T23:29:08.491Z,7.37
2023-02-12T23:31:35.180Z,9.20
2023-02-12T23:36:45.946Z,6.07
2023-02-12T23:39:12.603Z,5.43
2023-02-12T23:41:39.256Z,6.03
2023-02-12T23:44:05.800Z,3.80
2023-02-12T23:46:32.508Z,5.07
2023-02-12T23:48:59.260Z,5.90
2023-02-12T23:51:25.883Z,4.37
2023-02-12T23:53:52.473Z,3.60
2023-02-12T23:56:19.372Z,5.80
2023-02-12T23:58:45.922Z,7.40
